Details for Ryanair at LIRP




Go Back


Latest METAR
Local Time

LIRP 240745Z 27006KT 9999 BKN018 19/16 Q1018 NOSIG

24/05/2018, 09:55:56

Description
Results
Ryanair Logo
Number of Pilots based at LIRP
0 Pilots Based here
Number of Ryanair Flights Departed from LIRP
2 Flights Departed
Number of Ryanair Flights Arrived at LIRP
3 Flights Arrived
Number of Ryanair Schedules Departing from LIRP
91 Schedules
Number of Ryanair Schedules Arriving at LIRP
90 Schedules
Number of Ryanair Schedules Departing from LIRP availible today
27 Schedules Today
Number of Ryanair Schedules Arriving at LIRP availible today
28 Schedules Today
Average Landing Rate at LIRP
-139 fpm
Ryanair Average Landing Rate at LIRP
-159 fpm
Total Fuel Purchased at LIRP by Ryanair
10,243.93 kgs / 22,583.77 lbs

Pilots Based at LIRP


Pilot ID
Pilot Name
Pilot Rank
No. of Flights
No. of Flying Hours
There are no pilots assigned to this hub!   Will you be the first?
Content